createdAt,value
2022-10-31T00:02:23.620Z,12.34
2022-10-31T00:04:52.580Z,12.52
2022-10-31T00:07:21.996Z,12.53
2022-10-31T00:09:51.035Z,12.42
2022-10-31T00:12:19.634Z,11.93
2022-10-31T00:14:48.562Z,12.17
2022-10-31T00:17:17.192Z,11.98
2022-10-31T00:19:50.296Z,12.04
2022-10-31T00:22:32.433Z,12.21
2022-10-31T00:25:01.832Z,12.11
2022-10-31T00:27:59.832Z,12.26
2022-10-31T00:30:29.789Z,12.09
2022-10-31T00:33:06.790Z,11.93
2022-10-31T00:35:36.906Z,12.15
2022-10-31T00:38:06.907Z,12.05
2022-10-31T00:40:39.671Z,11.93
2022-10-31T00:43:08.677Z,12.15
2022-10-31T00:45:39.593Z,12.10
2022-10-31T00:48:11.073Z,12.08
2022-10-31T00:50:41.752Z,11.79
2022-10-31T00:53:13.777Z,11.71
2022-10-31T00:55:42.540Z,11.90
2022-10-31T00:58:11.390Z,11.72
2022-10-31T01:00:40.497Z,11.73
2022-10-31T01:03:09.492Z,11.69
2022-10-31T01:05:43.192Z,11.74
2022-10-31T01:08:12.390Z,11.82
2022-10-31T01:10:41.150Z,11.62
2022-10-31T01:13:11.878Z,11.66
2022-10-31T01:15:43.834Z,11.78
2022-10-31T01:18:12.771Z,11.72
2022-10-31T01:20:43.124Z,11.72
2022-10-31T01:23:11.831Z,11.40
2022-10-31T01:25:41.284Z,11.43
2022-10-31T01:28:10.935Z,11.44
2022-10-31T01:30:42.075Z,11.55
2022-10-31T01:33:13.502Z,11.40
2022-10-31T01:35:46.239Z,11.24
2022-10-31T01:38:15.004Z,11.23
2022-10-31T01:40:46.696Z,11.16
2022-10-31T01:43:16.572Z,11.23
2022-10-31T01:45:55.882Z,11.45
2022-10-31T01:48:32.267Z,11.20
2022-10-31T01:51:05.901Z,11.16
2022-10-31T01:53:35.802Z,11.20
2022-10-31T01:56:06.803Z,11.17
2022-10-31T01:58:36.141Z,11.21
2022-10-31T02:01:08.130Z,11.09
2022-10-31T02:03:39.792Z,11.18
2022-10-31T02:06:23.706Z,11.04
2022-10-31T02:08:56.904Z,10.99
2022-10-31T02:11:26.296Z,10.87
2022-10-31T02:13:55.629Z,10.95
2022-10-31T02:16:25.887Z,10.96
2022-10-31T02:18:58.457Z,11.32
2022-10-31T02:21:40.570Z,11.41
2022-10-31T02:24:43.664Z,11.31
2022-10-31T02:27:44.500Z,11.25
2022-10-31T02:30:16.861Z,11.42
2022-10-31T02:32:56.580Z,11.29
2022-10-31T02:35:43.741Z,11.26
2022-10-31T02:38:41.082Z,11.09
2022-10-31T02:41:22.129Z,10.95
2022-10-31T02:44:04.832Z,10.94
2022-10-31T02:46:40.424Z,10.80
2022-10-31T02:49:19.631Z,10.87
2022-10-31T02:51:48.574Z,10.86
2022-10-31T02:54:24.611Z,10.80
2022-10-31T02:57:01.897Z,11.10
2022-10-31T02:59:36.464Z,10.58
2022-10-31T03:02:34.702Z,10.70
2022-10-31T03:05:17.008Z,11.32
2022-10-31T03:07:56.691Z,11.23
2022-10-31T03:10:37.530Z,10.97
2022-10-31T03:13:12.864Z,11.10
2022-10-31T03:15:46.443Z,10.22
2022-10-31T03:18:17.252Z,11.05
2022-10-31T03:20:52.591Z,11.06
2022-10-31T03:23:24.501Z,11.18
2022-10-31T03:25:56.699Z,11.08
2022-10-31T03:28:32.907Z,11.29
2022-10-31T03:31:06.469Z,11.05
2022-10-31T03:33:41.786Z,10.96
2022-10-31T03:36:16.724Z,10.98
2022-10-31T03:38:50.234Z,10.91
2022-10-31T03:41:23.981Z,11.22
2022-10-31T03:44:00.408Z,11.22
2022-10-31T03:46:29.869Z,10.87
2022-10-31T03:49:02.193Z,10.88
2022-10-31T03:51:41.085Z,10.80
2022-10-31T03:54:15.577Z,10.80
2022-10-31T03:56:51.903Z,10.80
2022-10-31T03:59:28.097Z,10.86
2022-10-31T04:02:01.135Z,10.74
2022-10-31T04:04:32.222Z,10.73
2022-10-31T04:07:04.504Z,10.61
2022-10-31T04:09:40.470Z,10.48
2022-10-31T04:12:16.835Z,10.39
2022-10-31T04:14:51.560Z,10.21
2022-10-31T04:17:25.405Z,10.13
2022-10-31T04:19:54.292Z,10.05
2022-10-31T04:22:25.417Z,10.11
2022-10-31T04:24:55.020Z,10.11
2022-10-31T04:27:26.189Z,10.10
2022-10-31T04:29:55.375Z,10.23
2022-10-31T04:32:26.708Z,10.27
2022-10-31T04:34:57.238Z,10.31
2022-10-31T04:37:27.790Z,10.15
2022-10-31T04:39:59.490Z,10.30
2022-10-31T04:42:47.476Z,10.25
2022-10-31T04:45:20.178Z,10.39
2022-10-31T04:47:53.209Z,9.94
2022-10-31T04:50:22.868Z,10.00
2022-10-31T04:52:57.903Z,10.00
2022-10-31T04:55:30.199Z,10.08
2022-10-31T04:58:19.524Z,9.93
2022-10-31T05:00:48.724Z,9.79
2022-10-31T05:03:17.453Z,9.73
2022-10-31T05:05:46.529Z,9.87
2022-10-31T05:08:18.290Z,9.85
2022-10-31T05:10:47.952Z,9.90
2022-10-31T05:13:16.909Z,9.94
2022-10-31T05:16:17.566Z,9.93
2022-10-31T05:19:01.015Z,10.25
2022-10-31T05:21:59.360Z,9.77
2022-10-31T05:24:29.706Z,9.77
2022-10-31T05:26:58.475Z,9.71
2022-10-31T05:29:27.211Z,9.70
2022-10-31T05:31:56.254Z,9.72
2022-10-31T05:34:47.666Z,9.48
2022-10-31T05:37:38.156Z,9.59
2022-10-31T05:40:12.202Z,9.61
2022-10-31T05:42:42.010Z,9.65
2022-10-31T05:45:11.942Z,9.81
2022-10-31T05:47:53.424Z,9.77
2022-10-31T05:50:42.141Z,9.99
2022-10-31T05:53:13.021Z,10.18
2022-10-31T05:55:44.978Z,9.95
2022-10-31T05:58:21.752Z,9.67
2022-10-31T06:01:02.472Z,9.55
2022-10-31T06:03:31.436Z,9.61
2022-10-31T06:06:02.746Z,9.62
2022-10-31T06:08:39.177Z,9.94
2022-10-31T06:11:14.111Z,9.86
2022-10-31T06:14:03.666Z,10.06
2022-10-31T06:16:52.579Z,9.95
2022-10-31T06:19:44.333Z,9.90
2022-10-31T06:22:17.372Z,9.73
2022-10-31T06:24:46.164Z,10.04
2022-10-31T06:27:48.557Z,9.70
2022-10-31T06:30:17.764Z,9.98
2022-10-31T06:32:47.990Z,9.87
2022-10-31T06:35:16.820Z,9.98
2022-10-31T06:37:53.925Z,9.96
2022-10-31T06:40:40.160Z,9.90
2022-10-31T06:43:23.723Z,9.92
2022-10-31T06:46:04.466Z,9.85
2022-10-31T06:48:37.587Z,9.77
2022-10-31T06:51:23.611Z,9.58
2022-10-31T06:53:55.657Z,9.57
2022-10-31T06:56:27.822Z,9.68
2022-10-31T06:59:00.132Z,9.52
2022-10-31T07:01:49.113Z,9.60
2022-10-31T07:04:18.129Z,9.61
2022-10-31T07:06:51.682Z,9.22
2022-10-31T07:09:21.266Z,9.30
2022-10-31T07:11:49.948Z,9.50
2022-10-31T07:14:19.999Z,9.71
2022-10-31T07:16:53.182Z,9.70
2022-10-31T07:19:27.341Z,9.70
2022-10-31T07:21:58.672Z,9.52
2022-10-31T07:24:32.392Z,9.84
2022-10-31T07:27:21.313Z,9.71
2022-10-31T07:29:53.576Z,9.81
2022-10-31T07:32:24.935Z,9.95
2022-10-31T07:34:59.354Z,9.92
2022-10-31T07:37:41.783Z,9.77
2022-10-31T07:40:12.352Z,9.96
2022-10-31T07:42:44.953Z,9.88
2022-10-31T07:45:35.205Z,9.93
2022-10-31T07:48:33.025Z,10.01
2022-10-31T07:51:20.262Z,9.88
2022-10-31T07:54:04.149Z,9.78
2022-10-31T07:56:35.415Z,9.94
2022-10-31T07:59:04.083Z,9.98
2022-10-31T08:01:34.559Z,9.83
2022-10-31T08:04:26.404Z,10.02
2022-10-31T08:07:13.630Z,9.34
2022-10-31T08:09:49.965Z,9.83
2022-10-31T08:12:26.868Z,10.03
2022-10-31T08:14:56.125Z,10.08
2022-10-31T08:17:26.352Z,10.06
2022-10-31T08:19:57.918Z,9.95
2022-10-31T08:22:34.257Z,10.08
2022-10-31T08:25:04.066Z,9.99
2022-10-31T08:27:32.792Z,10.08
2022-10-31T08:30:03.239Z,9.90
2022-10-31T08:32:37.281Z,10.11
2022-10-31T08:35:24.787Z,10.07
2022-10-31T08:38:13.070Z,10.19
2022-10-31T08:40:45.966Z,10.06
2022-10-31T08:43:17.258Z,9.95
2022-10-31T08:45:47.131Z,10.23
2022-10-31T08:48:23.936Z,10.15
2022-10-31T08:50:52.917Z,10.32
2022-10-31T08:53:21.682Z,10.47
2022-10-31T08:56:00.333Z,10.50
2022-10-31T08:58:35.137Z,10.63
2022-10-31T09:01:06.849Z,10.84
2022-10-31T09:03:37.379Z,10.78
2022-10-31T09:06:10.059Z,10.88
2022-10-31T09:08:39.643Z,10.84
2022-10-31T09:11:10.744Z,11.10
2022-10-31T09:13:58.002Z,11.27
2022-10-31T09:16:49.376Z,11.61
2022-10-31T09:19:27.712Z,11.72
2022-10-31T09:21:58.815Z,11.92
2022-10-31T09:24:27.707Z,11.94
2022-10-31T09:26:56.487Z,12.30
2022-10-31T09:29:37.931Z,12.38
2022-10-31T09:32:07.791Z,12.68
2022-10-31T09:34:43.693Z,12.66
2022-10-31T09:37:15.510Z,12.57
2022-10-31T09:39:45.491Z,12.65
2022-10-31T09:42:37.609Z,12.92
2022-10-31T09:45:20.444Z,13.15
2022-10-31T09:48:02.616Z,12.86
2022-10-31T09:50:43.942Z,12.80
2022-10-31T09:53:39.646Z,12.76
2022-10-31T09:56:14.246Z,12.65
2022-10-31T09:58:47.553Z,12.70
2022-10-31T10:01:40.454Z,12.20
2022-10-31T10:04:30.151Z,12.70
2022-10-31T10:07:32.531Z,12.87
2022-10-31T10:10:27.811Z,13.16
2022-10-31T10:13:52.117Z,13.40
2022-10-31T10:16:36.393Z,13.22
2022-10-31T10:19:30.370Z,13.31
2022-10-31T10:22:13.143Z,13.39
2022-10-31T10:25:07.372Z,13.43
2022-10-31T10:27:51.624Z,12.87
2022-10-31T10:30:23.824Z,13.40
2022-10-31T10:32:57.026Z,13.45
2022-10-31T10:35:31.849Z,13.76
2022-10-31T10:38:12.224Z,13.58
2022-10-31T10:40:43.375Z,13.87
2022-10-31T10:43:26.784Z,13.82
2022-10-31T10:46:20.132Z,13.99
2022-10-31T10:48:59.307Z,14.00
2022-10-31T10:54:47.919Z,14.41
2022-10-31T10:57:40.533Z,14.58
2022-10-31T11:00:20.473Z,14.59
2022-10-31T11:02:50.040Z,14.81
2022-10-31T11:05:30.335Z,14.51
2022-10-31T11:07:59.115Z,14.87
2022-10-31T11:10:28.199Z,14.81
2022-10-31T11:13:09.391Z,14.74
2022-10-31T11:15:41.686Z,14.80
2022-10-31T11:20:55.620Z,14.97
2022-10-31T11:23:26.760Z,14.85
2022-10-31T11:25:58.322Z,14.82
2022-10-31T11:28:31.384Z,14.82
2022-10-31T11:31:01.689Z,14.91
2022-10-31T11:33:34.952Z,15.06
2022-10-31T11:36:16.243Z,15.05
2022-10-31T11:38:46.294Z,14.47
2022-10-31T11:41:18.973Z,14.87
2022-10-31T11:43:53.129Z,14.83
2022-10-31T11:46:26.605Z,14.97
2022-10-31T11:48:58.438Z,15.02
2022-10-31T11:51:30.426Z,14.74
2022-10-31T11:54:05.631Z,14.88
2022-10-31T11:56:40.503Z,14.46
2022-10-31T11:59:21.149Z,14.72
2022-10-31T12:01:52.316Z,14.91
2022-10-31T12:04:36.875Z,14.83
2022-10-31T12:07:05.705Z,14.89
2022-10-31T12:09:38.662Z,14.75
2022-10-31T12:12:32.192Z,14.94
2022-10-31T12:15:28.869Z,15.16
2022-10-31T12:18:27.802Z,15.00
2022-10-31T12:21:05.956Z,15.02
2022-10-31T12:23:48.060Z,15.24
2022-10-31T12:26:25.248Z,15.07
2022-10-31T12:29:09.587Z,15.00
2022-10-31T12:31:50.371Z,15.01
2022-10-31T12:34:49.063Z,15.26
2022-10-31T12:37:34.428Z,15.30
2022-10-31T12:40:27.094Z,15.14
2022-10-31T12:43:08.255Z,15.41
2022-10-31T12:45:44.224Z,15.13
2022-10-31T12:48:29.586Z,15.12
2022-10-31T12:51:07.714Z,15.06
2022-10-31T12:53:50.462Z,14.95
2022-10-31T12:56:34.352Z,15.25
2022-10-31T12:59:09.304Z,14.98
2022-10-31T13:01:46.627Z,15.24
2022-10-31T13:04:21.936Z,15.29
2022-10-31T13:06:55.149Z,15.25
2022-10-31T13:09:25.940Z,15.23
2022-10-31T13:12:00.852Z,15.31
2022-10-31T13:14:36.864Z,14.42
2022-10-31T13:17:07.445Z,15.26
2022-10-31T13:19:43.531Z,15.09
2022-10-31T13:22:18.442Z,15.34
2022-10-31T13:24:56.865Z,15.21
2022-10-31T13:27:28.989Z,15.24
2022-10-31T13:30:04.198Z,15.19
2022-10-31T13:32:43.542Z,15.43
2022-10-31T13:35:20.266Z,15.22
2022-10-31T13:37:55.605Z,15.10
2022-10-31T13:40:36.422Z,15.07
2022-10-31T13:43:19.408Z,14.92
2022-10-31T13:45:52.963Z,14.83
2022-10-31T13:48:40.083Z,14.75
2022-10-31T13:51:13.765Z,14.87
2022-10-31T13:53:46.321Z,15.02
2022-10-31T13:56:23.338Z,14.89
2022-10-31T13:59:20.779Z,14.85
2022-10-31T14:01:57.184Z,14.90
2022-10-31T14:04:29.012Z,15.04
2022-10-31T14:07:12.241Z,15.38
2022-10-31T14:09:54.303Z,15.31
2022-10-31T14:12:31.361Z,15.27
2022-10-31T14:15:08.020Z,14.87
2022-10-31T14:17:48.238Z,14.92
2022-10-31T14:20:36.172Z,14.92
2022-10-31T14:23:37.257Z,14.97
2022-10-31T14:26:32.064Z,15.04
2022-10-31T14:29:03.229Z,15.12
2022-10-31T14:31:38.530Z,15.11
2022-10-31T14:34:25.798Z,15.25
2022-10-31T14:37:07.411Z,15.30
2022-10-31T14:39:44.531Z,15.05
2022-10-31T14:42:25.300Z,14.95
2022-10-31T14:45:08.344Z,14.98
2022-10-31T14:47:46.225Z,14.86
2022-10-31T14:50:27.604Z,14.86
2022-10-31T14:52:59.921Z,14.70
2022-10-31T14:55:30.620Z,14.82
2022-10-31T14:58:03.036Z,14.78
2022-10-31T15:00:34.704Z,14.85
2022-10-31T15:03:18.855Z,14.85
2022-10-31T15:05:52.422Z,14.77
2022-10-31T15:08:37.071Z,14.74
2022-10-31T15:11:14.224Z,14.81
2022-10-31T15:13:50.454Z,14.68
2022-10-31T15:16:23.276Z,14.74
2022-10-31T15:18:57.104Z,14.90
2022-10-31T15:21:29.361Z,14.71
2022-10-31T15:24:02.718Z,14.70
2022-10-31T15:26:41.598Z,14.60
2022-10-31T15:29:24.021Z,14.69
2022-10-31T15:31:59.618Z,14.67
2022-10-31T15:34:38.017Z,14.60
2022-10-31T15:37:11.860Z,14.64
2022-10-31T15:39:41.546Z,14.64
2022-10-31T15:42:22.407Z,14.67
2022-10-31T15:45:02.131Z,14.53
2022-10-31T15:47:34.255Z,14.44
2022-10-31T15:50:06.453Z,14.50
2022-10-31T15:52:45.271Z,14.60
2022-10-31T15:55:21.762Z,14.58
2022-10-31T15:57:55.026Z,14.48
2022-10-31T16:00:26.889Z,14.73
2022-10-31T16:03:07.683Z,14.79
2022-10-31T16:05:39.048Z,14.77
2022-10-31T16:08:26.918Z,14.56
2022-10-31T16:10:56.605Z,14.39
2022-10-31T16:13:30.312Z,13.61
2022-10-31T16:16:32.892Z,14.38
2022-10-31T16:18:59.330Z,14.37
2022-10-31T16:21:32.554Z,14.18
2022-10-31T16:24:06.187Z,14.23
2022-10-31T16:26:36.050Z,14.25
2022-10-31T16:29:29.347Z,14.22
2022-10-31T16:31:58.135Z,14.16
2022-10-31T16:34:27.522Z,14.20
2022-10-31T16:36:56.217Z,14.15
2022-10-31T16:39:25.011Z,14.18
2022-10-31T16:41:57.321Z,14.10
2022-10-31T16:44:28.649Z,14.14
2022-10-31T16:47:11.907Z,14.07
2022-10-31T16:49:43.804Z,14.03
2022-10-31T16:52:13.913Z,14.13
2022-10-31T16:54:42.972Z,14.02
2022-10-31T16:57:19.179Z,14.17
2022-10-31T16:59:54.641Z,14.12
2022-10-31T17:02:26.139Z,13.98
2022-10-31T17:04:56.916Z,14.24
2022-10-31T17:07:26.188Z,14.23
2022-10-31T17:09:56.046Z,14.36
2022-10-31T17:12:28.803Z,14.37
2022-10-31T17:14:59.560Z,14.37
2022-10-31T17:17:28.605Z,14.42
2022-10-31T17:19:58.306Z,14.33
2022-10-31T17:22:27.435Z,14.07
2022-10-31T17:25:01.979Z,13.98
2022-10-31T17:27:36.563Z,14.15
2022-10-31T17:30:07.816Z,14.11
2022-10-31T17:32:40.206Z,14.05
2022-10-31T17:35:11.316Z,14.21
2022-10-31T17:37:54.331Z,14.22
2022-10-31T17:40:23.466Z,14.22
2022-10-31T17:42:56.351Z,14.13
2022-10-31T17:48:14.936Z,14.13
2022-10-31T17:50:43.740Z,13.89
2022-10-31T17:53:12.483Z,13.82
2022-10-31T17:55:41.574Z,13.80
2022-10-31T17:58:13.205Z,13.67
2022-10-31T18:00:45.962Z,13.69
2022-10-31T18:03:17.680Z,13.82
2022-10-31T18:06:04.191Z,13.92
2022-10-31T18:08:35.365Z,14.02
2022-10-31T18:11:09.360Z,13.72
2022-10-31T18:13:39.372Z,13.88
2022-10-31T18:16:11.062Z,13.95
2022-10-31T18:18:39.915Z,13.85
2022-10-31T18:21:09.063Z,13.80
2022-10-31T18:23:37.884Z,13.76
2022-10-31T18:26:06.803Z,13.92
2022-10-31T18:28:37.291Z,13.86
2022-10-31T18:31:06.332Z,13.92
2022-10-31T18:33:37.848Z,14.01
2022-10-31T18:36:08.349Z,13.79
2022-10-31T18:38:41.163Z,13.78
2022-10-31T18:41:10.513Z,13.82
2022-10-31T18:43:39.294Z,14.15
2022-10-31T18:46:11.418Z,14.14
2022-10-31T18:48:42.565Z,13.77
2022-10-31T18:51:14.383Z,14.05
2022-10-31T18:53:43.110Z,14.30
2022-10-31T18:56:12.708Z,14.06
2022-10-31T18:58:41.469Z,14.16
2022-10-31T19:01:14.893Z,14.18
2022-10-31T19:03:45.731Z,14.08
2022-10-31T19:06:16.148Z,14.23
2022-10-31T19:08:45.448Z,14.22
2022-10-31T19:11:15.967Z,14.26
2022-10-31T19:13:50.447Z,14.14
2022-10-31T19:16:19.587Z,14.21
2022-10-31T19:18:49.640Z,14.27
2022-10-31T19:21:19.445Z,13.98
2022-10-31T19:23:53.019Z,14.08
2022-10-31T19:26:21.932Z,14.15
2022-10-31T19:28:51.044Z,14.01
2022-10-31T19:31:20.301Z,14.19
2022-10-31T19:33:50.726Z,14.12
2022-10-31T19:36:21.237Z,14.12
2022-10-31T19:38:51.910Z,13.95
2022-10-31T19:41:22.547Z,13.96
2022-10-31T19:43:54.220Z,14.03
2022-10-31T19:49:14.644Z,13.79
2022-10-31T19:51:47.150Z,13.99
2022-10-31T19:54:16.211Z,13.87
2022-10-31T19:56:45.421Z,13.83
2022-10-31T19:59:14.312Z,13.85
2022-10-31T20:01:43.198Z,13.85
2022-10-31T20:04:12.320Z,13.81
2022-10-31T20:06:42.866Z,13.81
2022-10-31T20:09:14.905Z,13.84
2022-10-31T20:11:44.997Z,13.75
2022-10-31T20:14:16.128Z,13.59
2022-10-31T20:16:48.018Z,13.95
2022-10-31T20:19:17.507Z,13.83
2022-10-31T20:21:47.927Z,13.87
2022-10-31T20:24:16.689Z,13.86
2022-10-31T20:26:48.348Z,13.92
2022-10-31T20:29:17.274Z,13.74
2022-10-31T20:31:48.489Z,13.94
2022-10-31T20:34:19.691Z,13.72
2022-10-31T20:36:50.219Z,13.69
2022-10-31T20:39:19.249Z,13.67
2022-10-31T20:41:48.654Z,13.83
2022-10-31T20:44:18.240Z,13.72
2022-10-31T20:46:48.101Z,13.49
2022-10-31T20:49:17.938Z,13.72
2022-10-31T20:51:51.182Z,13.52
2022-10-31T20:54:20.154Z,13.52
2022-10-31T20:56:49.323Z,13.95
2022-10-31T20:59:19.908Z,13.72
2022-10-31T21:01:48.708Z,13.73
2022-10-31T21:04:18.027Z,13.52
2022-10-31T21:06:49.586Z,13.68
2022-10-31T21:09:21.945Z,13.49
2022-10-31T21:11:50.797Z,13.60
2022-10-31T21:14:19.982Z,13.61
2022-10-31T21:16:48.602Z,13.57
2022-10-31T21:19:17.850Z,13.46
2022-10-31T21:21:49.358Z,13.66
2022-10-31T21:24:20.803Z,13.50
2022-10-31T21:26:52.744Z,13.46
2022-10-31T21:29:23.460Z,13.60
2022-10-31T21:31:52.609Z,13.54
2022-10-31T21:34:21.560Z,13.81
2022-10-31T21:36:50.480Z,13.67
2022-10-31T21:39:19.953Z,13.74
2022-10-31T21:41:49.051Z,13.59
2022-10-31T21:44:29.752Z,13.74
2022-10-31T21:47:04.753Z,13.62
2022-10-31T21:49:34.133Z,13.66
2022-10-31T21:52:04.491Z,13.67
2022-10-31T21:54:33.516Z,13.84
2022-10-31T21:57:03.548Z,13.45
2022-10-31T21:59:46.024Z,13.05
2022-10-31T22:02:15.549Z,13.74
2022-10-31T22:04:51.619Z,13.78
2022-10-31T22:07:20.790Z,13.66
2022-10-31T22:09:59.726Z,13.68
2022-10-31T22:12:29.854Z,13.68
2022-10-31T22:15:05.502Z,13.71
2022-10-31T22:17:39.397Z,13.75
2022-10-31T22:20:12.339Z,13.52
2022-10-31T22:22:47.688Z,13.87
2022-10-31T22:25:20.941Z,13.75
2022-10-31T22:28:08.372Z,13.98
2022-10-31T22:30:42.517Z,13.99
2022-10-31T22:33:13.437Z,13.91
2022-10-31T22:36:15.730Z,13.81
2022-10-31T22:39:10.391Z,13.92
2022-10-31T22:44:50.013Z,13.89
2022-10-31T22:51:27.159Z,13.93
2022-10-31T22:54:02.130Z,13.87
2022-10-31T23:00:49.126Z,13.94
2022-10-31T23:03:18.146Z,13.91
2022-10-31T23:05:56.357Z,13.18
2022-10-31T23:08:27.225Z,13.91
2022-10-31T23:10:59.087Z,13.86
2022-10-31T23:13:45.964Z,13.99
2022-10-31T23:16:15.427Z,14.05
2022-10-31T23:18:49.953Z,13.99
2022-10-31T23:21:43.884Z,13.90
2022-10-31T23:24:14.823Z,13.92
2022-10-31T23:27:01.452Z,13.75
2022-10-31T23:29:30.479Z,13.93
2022-10-31T23:32:00.275Z,13.83
2022-10-31T23:34:29.346Z,13.93
2022-10-31T23:36:58.277Z,13.89
2022-10-31T23:39:28.418Z,13.94
2022-10-31T23:41:57.792Z,13.88
2022-10-31T23:44:26.970Z,13.95
2022-10-31T23:51:36.639Z,13.73
